createdAt,value
2022-10-07T00:01:12.823Z,8.61
2022-10-07T00:03:41.004Z,8.58
2022-10-07T00:06:15.077Z,8.55
2022-10-07T00:08:45.703Z,8.53
2022-10-07T00:11:19.319Z,8.52
2022-10-07T00:13:49.217Z,8.51
2022-10-07T00:16:21.523Z,8.52
2022-10-07T00:18:49.541Z,8.51
2022-10-07T00:21:19.121Z,8.51
2022-10-07T00:23:47.901Z,8.52
2022-10-07T00:26:21.691Z,8.52
2022-10-07T00:28:50.364Z,8.48
2022-10-07T00:31:21.959Z,8.44
2022-10-07T00:33:50.873Z,8.43
2022-10-07T00:36:23.853Z,8.39
2022-10-07T00:38:53.839Z,8.34
2022-10-07T00:41:26.086Z,8.27
2022-10-07T00:43:54.570Z,8.20
2022-10-07T00:46:38.820Z,8.14
2022-10-07T00:49:11.961Z,8.07
2022-10-07T00:51:43.688Z,8.02
2022-10-07T00:54:16.408Z,7.98
2022-10-07T00:56:47.021Z,7.96
2022-10-07T00:59:16.805Z,7.96
2022-10-07T01:01:44.622Z,7.95
2022-10-07T01:04:15.090Z,7.95
2022-10-07T01:06:45.891Z,7.97
2022-10-07T01:09:14.938Z,7.99
2022-10-07T01:11:56.121Z,8.00
2022-10-07T01:14:51.991Z,8.00
2022-10-07T01:17:29.771Z,8.01
2022-10-07T01:20:16.848Z,8.02
2022-10-07T01:23:06.353Z,8.06
2022-10-07T01:25:52.547Z,8.10
2022-10-07T01:28:26.034Z,8.14
2022-10-07T01:30:59.108Z,8.14
2022-10-07T01:33:31.764Z,8.11
2022-10-07T01:36:07.229Z,8.03
2022-10-07T01:38:38.864Z,7.96
2022-10-07T01:41:17.909Z,7.91
2022-10-07T01:43:48.169Z,7.85
2022-10-07T01:46:22.446Z,7.78
2022-10-07T01:48:52.064Z,7.73
2022-10-07T01:51:28.594Z,7.70
2022-10-07T01:54:11.675Z,7.67
2022-10-07T01:57:22.135Z,7.65
2022-10-07T02:00:12.150Z,7.65
2022-10-07T02:03:21.633Z,7.68
2022-10-07T02:06:15.814Z,7.70
2022-10-07T02:08:54.802Z,7.73
2022-10-07T02:11:33.567Z,7.76
2022-10-07T02:14:14.255Z,7.76
2022-10-07T02:16:53.851Z,7.73
2022-10-07T02:19:26.329Z,7.70
2022-10-07T02:21:57.588Z,7.71
2022-10-07T02:24:29.565Z,7.72
2022-10-07T02:27:01.815Z,7.72
2022-10-07T02:29:34.114Z,7.69
2022-10-07T02:32:07.519Z,7.66
2022-10-07T02:34:36.718Z,7.63
2022-10-07T02:37:15.040Z,7.59
2022-10-07T02:39:44.840Z,7.59
2022-10-07T02:42:25.556Z,7.58
2022-10-07T02:45:02.355Z,7.58
2022-10-07T02:47:38.193Z,7.60
2022-10-07T02:50:13.221Z,7.61
2022-10-07T02:52:45.011Z,7.63
2022-10-07T02:55:17.741Z,7.64
2022-10-07T02:57:48.456Z,7.65
2022-10-07T03:00:19.166Z,7.69
2022-10-07T03:02:57.738Z,7.71
2022-10-07T03:05:33.209Z,7.69
2022-10-07T03:08:06.361Z,7.66
2022-10-07T03:10:35.356Z,7.65
2022-10-07T03:13:05.117Z,7.66
2022-10-07T03:15:41.151Z,7.68
2022-10-07T03:18:26.757Z,7.66
2022-10-07T03:21:06.260Z,7.61
2022-10-07T03:23:34.893Z,7.59
2022-10-07T03:26:02.767Z,7.59
2022-10-07T03:28:37.763Z,7.58
2022-10-07T03:31:08.978Z,7.57
2022-10-07T03:33:38.760Z,7.58
2022-10-07T03:36:10.963Z,7.59
2022-10-07T03:38:40.609Z,7.58
2022-10-07T03:41:09.071Z,7.54
2022-10-07T03:43:37.782Z,7.53
2022-10-07T03:46:07.309Z,7.54
2022-10-07T03:48:36.733Z,7.55
2022-10-07T03:51:04.887Z,7.54
2022-10-07T03:53:34.749Z,7.51
2022-10-07T03:56:03.060Z,7.51
2022-10-07T03:58:31.428Z,7.47
2022-10-07T04:01:11.336Z,7.43
2022-10-07T04:03:43.292Z,7.41
2022-10-07T04:06:11.318Z,7.37
2022-10-07T04:08:40.855Z,7.34
2022-10-07T04:11:09.297Z,7.31
2022-10-07T04:13:40.260Z,7.27
2022-10-07T04:16:10.182Z,7.22
2022-10-07T04:18:38.363Z,7.17
2022-10-07T04:21:06.961Z,7.15
2022-10-07T04:23:36.693Z,7.12
2022-10-07T04:26:09.851Z,7.11
2022-10-07T04:28:39.146Z,7.10
2022-10-07T04:31:11.734Z,7.10
2022-10-07T04:33:46.406Z,7.09
2022-10-07T04:36:18.012Z,7.04
2022-10-07T04:38:50.571Z,7.01
2022-10-07T04:41:20.866Z,6.99
2022-10-07T04:43:56.849Z,6.99
2022-10-07T04:46:28.478Z,6.99
2022-10-07T04:49:01.469Z,6.99
2022-10-07T04:51:31.296Z,6.96
2022-10-07T04:54:00.575Z,6.92
2022-10-07T04:56:43.067Z,6.89
2022-10-07T04:59:12.895Z,6.89
2022-10-07T05:01:41.447Z,6.87
2022-10-07T05:04:10.854Z,6.88
2022-10-07T05:06:39.462Z,6.94
2022-10-07T05:09:07.869Z,7.01
2022-10-07T05:11:38.221Z,7.11
2022-10-07T05:14:10.163Z,7.20
2022-10-07T05:16:38.406Z,7.29
2022-10-07T05:19:06.674Z,7.38
2022-10-07T05:21:34.660Z,7.43
2022-10-07T05:24:02.884Z,7.52
2022-10-07T05:26:35.342Z,7.59
2022-10-07T05:29:03.949Z,7.72
2022-10-07T05:31:37.779Z,7.84
2022-10-07T05:34:06.115Z,7.92
2022-10-07T05:36:35.112Z,8.06
2022-10-07T05:39:03.934Z,8.14
2022-10-07T05:41:45.663Z,8.24
2022-10-07T05:44:15.209Z,8.36
2022-10-07T05:46:43.735Z,8.50
2022-10-07T05:49:12.354Z,8.63
2022-10-07T05:51:41.405Z,8.76
2022-10-07T05:54:09.868Z,8.92
2022-10-07T05:56:41.797Z,9.08
2022-10-07T05:59:10.610Z,9.28
2022-10-07T06:01:41.486Z,9.48
2022-10-07T06:04:13.802Z,9.65
2022-10-07T06:06:43.298Z,9.84
2022-10-07T06:09:30.811Z,9.98
2022-10-07T06:12:18.650Z,10.14
2022-10-07T06:14:47.356Z,10.31
2022-10-07T06:17:16.568Z,10.48
2022-10-07T06:19:45.923Z,10.65
2022-10-07T06:22:15.390Z,10.81
2022-10-07T06:24:43.848Z,10.91
2022-10-07T06:27:12.210Z,10.93
2022-10-07T06:29:42.626Z,10.94
2022-10-07T06:32:11.275Z,10.95
2022-10-07T06:34:40.247Z,10.89
2022-10-07T06:37:08.394Z,10.85
2022-10-07T06:39:36.364Z,10.80
2022-10-07T06:42:04.781Z,10.78
2022-10-07T06:44:57.186Z,10.67
2022-10-07T06:47:25.377Z,10.58
2022-10-07T06:49:53.638Z,10.48
2022-10-07T06:52:21.950Z,10.25
2022-10-07T06:54:50.186Z,10.12
2022-10-07T06:57:44.375Z,10.13
2022-10-07T07:00:07.820Z,10.22
2022-10-07T07:02:36.672Z,10.20
2022-10-07T07:05:08.683Z,10.16
2022-10-07T07:07:38.341Z,10.21
2022-10-07T07:10:07.755Z,10.30
2022-10-07T07:12:37.283Z,10.43
2022-10-07T07:15:07.041Z,10.61
2022-10-07T07:17:35.231Z,10.86
2022-10-07T07:20:03.515Z,11.06
2022-10-07T07:22:31.555Z,11.18
2022-10-07T07:24:59.843Z,11.39
2022-10-07T07:27:28.269Z,11.64
2022-10-07T07:29:58.719Z,11.83
2022-10-07T07:32:28.125Z,11.99
2022-10-07T07:34:57.105Z,12.12
2022-10-07T07:37:25.563Z,12.31
2022-10-07T07:40:43.558Z,12.46
2022-10-07T07:43:11.785Z,12.41
2022-10-07T07:45:40.211Z,12.40
2022-10-07T07:48:08.283Z,12.30
2022-10-07T07:50:40.318Z,12.18
2022-10-07T07:53:10.405Z,12.23
2022-10-07T07:55:38.582Z,12.36
2022-10-07T07:58:11.685Z,12.42
2022-10-07T08:00:40.953Z,12.42
2022-10-07T08:03:09.285Z,12.51
2022-10-07T08:05:37.756Z,12.60
2022-10-07T08:08:05.985Z,12.67
2022-10-07T08:10:35.021Z,12.70
2022-10-07T08:13:03.341Z,12.70
2022-10-07T08:15:31.908Z,12.73
2022-10-07T08:18:00.416Z,12.78
2022-10-07T08:20:29.558Z,12.82
2022-10-07T08:22:59.944Z,12.81
2022-10-07T08:25:28.362Z,12.77
2022-10-07T08:27:57.931Z,12.74
2022-10-07T08:30:26.052Z,12.75
2022-10-07T08:32:59.007Z,12.77
2022-10-07T08:35:29.169Z,12.90
2022-10-07T08:37:57.189Z,13.04
2022-10-07T08:40:25.066Z,13.14
2022-10-07T08:42:54.908Z,13.24
2022-10-07T08:45:30.765Z,13.35
2022-10-07T08:48:03.406Z,13.44
2022-10-07T08:50:59.454Z,13.55
2022-10-07T08:53:34.235Z,13.69
2022-10-07T08:56:14.766Z,13.79
2022-10-07T08:58:49.304Z,13.90
2022-10-07T09:01:32.953Z,14.00
2022-10-07T09:04:23.841Z,14.15
2022-10-07T09:07:02.338Z,14.31
2022-10-07T09:09:45.483Z,14.44
2022-10-07T09:12:23.133Z,14.58
2022-10-07T09:14:56.211Z,14.71
2022-10-07T09:17:34.205Z,14.86
2022-10-07T09:20:29.113Z,15.01
2022-10-07T09:22:59.453Z,15.12
2022-10-07T09:25:30.456Z,15.18
2022-10-07T09:27:58.724Z,15.29
2022-10-07T09:30:32.541Z,15.42
2022-10-07T09:33:01.476Z,15.59
2022-10-07T09:35:31.992Z,15.77
2022-10-07T09:38:08.277Z,15.90
2022-10-07T09:41:07.505Z,16.02
2022-10-07T09:43:36.879Z,16.15
2022-10-07T09:46:05.531Z,16.24
2022-10-07T09:48:34.924Z,16.36
2022-10-07T09:51:18.825Z,16.47
2022-10-07T09:54:03.222Z,16.53
2022-10-07T09:56:46.007Z,16.67
2022-10-07T09:59:24.724Z,16.78
2022-10-07T10:02:02.540Z,16.85
2022-10-07T10:04:34.631Z,16.94
2022-10-07T10:07:17.251Z,17.09
2022-10-07T10:09:51.094Z,17.19
2022-10-07T10:12:22.002Z,17.28
2022-10-07T10:14:53.578Z,17.41
2022-10-07T10:17:38.429Z,17.52
2022-10-07T10:20:28.059Z,17.63
2022-10-07T10:22:56.719Z,17.73
2022-10-07T10:26:33.309Z,17.83
2022-10-07T10:29:13.914Z,18.00
2022-10-07T10:32:03.237Z,18.18
2022-10-07T10:34:49.951Z,18.38
2022-10-07T10:37:22.118Z,18.55
2022-10-07T10:40:25.639Z,18.70
2022-10-07T10:43:06.224Z,18.87
2022-10-07T10:46:08.749Z,19.02
2022-10-07T10:48:47.005Z,19.14
2022-10-07T10:51:21.509Z,19.25
2022-10-07T10:54:34.326Z,19.34
2022-10-07T10:57:16.090Z,19.43
2022-10-07T11:00:05.547Z,19.51
2022-10-07T11:02:49.229Z,19.62
2022-10-07T11:05:24.994Z,19.72
2022-10-07T11:08:01.751Z,19.78
2022-10-07T11:10:44.617Z,19.83
2022-10-07T11:13:25.684Z,19.86
2022-10-07T11:16:06.197Z,19.90
2022-10-07T11:18:42.263Z,19.97
2022-10-07T11:21:16.817Z,19.97
2022-10-07T11:23:54.002Z,19.96
2022-10-07T11:26:37.781Z,19.98
2022-10-07T11:29:23.161Z,19.98
2022-10-07T11:32:00.859Z,19.96
2022-10-07T11:34:42.224Z,19.97
2022-10-07T11:37:21.707Z,20.00
2022-10-07T11:39:51.314Z,19.99
2022-10-07T11:42:29.024Z,19.97
2022-10-07T11:45:04.377Z,20.01
2022-10-07T11:47:43.619Z,20.07
2022-10-07T11:50:23.185Z,20.12
2022-10-07T11:52:55.278Z,20.09
2022-10-07T11:55:29.432Z,20.04
2022-10-07T11:57:59.787Z,20.05
2022-10-07T12:00:34.500Z,20.07
2022-10-07T12:03:31.882Z,20.11
2022-10-07T12:06:17.993Z,20.11
2022-10-07T12:08:46.616Z,20.11
2022-10-07T12:11:15.067Z,20.08
2022-10-07T12:13:45.367Z,20.07
2022-10-07T12:16:30.077Z,20.05
2022-10-07T12:19:08.198Z,20.01
2022-10-07T12:22:15.078Z,20.06
2022-10-07T12:24:46.195Z,20.00
2022-10-07T12:27:29.522Z,20.00
2022-10-07T12:30:02.308Z,20.02
2022-10-07T12:33:00.859Z,20.00
2022-10-07T12:35:34.708Z,20.02
2022-10-07T12:38:15.446Z,20.05
2022-10-07T12:40:50.052Z,20.10
2022-10-07T12:43:46.032Z,20.11
2022-10-07T12:46:18.743Z,20.08
2022-10-07T12:49:37.289Z,20.04
2022-10-07T12:52:14.664Z,20.02
2022-10-07T12:54:45.619Z,20.02
2022-10-07T12:57:19.897Z,20.01
2022-10-07T13:00:01.251Z,20.00
2022-10-07T13:02:32.841Z,20.01
2022-10-07T13:05:38.754Z,20.01
2022-10-07T13:08:16.066Z,20.00
2022-10-07T13:11:05.593Z,19.96
2022-10-07T13:13:52.446Z,19.93
2022-10-07T13:16:48.488Z,19.91
2022-10-07T13:19:19.374Z,19.93
2022-10-07T13:21:58.471Z,19.97
2022-10-07T13:24:28.538Z,19.94
2022-10-07T13:26:57.972Z,19.92
2022-10-07T13:29:31.297Z,19.90
2022-10-07T13:32:16.355Z,19.88
2022-10-07T13:34:48.195Z,19.85
2022-10-07T13:37:31.237Z,19.82
2022-10-07T13:40:20.237Z,19.72
2022-10-07T13:43:04.868Z,19.67
2022-10-07T13:45:43.229Z,19.62
2022-10-07T13:48:17.177Z,19.56
2022-10-07T13:50:45.615Z,19.52
2022-10-07T13:53:32.670Z,19.47
2022-10-07T13:56:22.774Z,19.45
2022-10-07T13:58:55.287Z,19.46
2022-10-07T14:01:27.621Z,19.45
2022-10-07T14:04:08.095Z,19.43
2022-10-07T14:06:48.993Z,19.36
2022-10-07T14:09:26.316Z,19.33
2022-10-07T14:11:57.610Z,19.32
2022-10-07T14:14:32.657Z,19.30
2022-10-07T14:17:00.774Z,19.26
2022-10-07T14:19:33.019Z,19.17
2022-10-07T14:22:04.592Z,19.06
2022-10-07T14:24:32.464Z,18.97
2022-10-07T14:27:00.540Z,18.90
2022-10-07T14:29:35.401Z,18.82
2022-10-07T14:32:48.629Z,18.74
2022-10-07T14:35:23.149Z,18.63
2022-10-07T14:37:51.106Z,18.57
2022-10-07T14:40:23.384Z,18.51
2022-10-07T14:42:54.332Z,18.47
2022-10-07T14:45:22.512Z,18.41
2022-10-07T14:47:50.840Z,18.35
2022-10-07T14:50:19.783Z,18.30
2022-10-07T14:52:52.112Z,18.24
2022-10-07T14:55:27.932Z,18.20
2022-10-07T14:57:56.690Z,18.15
2022-10-07T15:00:29.550Z,18.10
2022-10-07T15:02:58.362Z,18.04
2022-10-07T15:05:27.038Z,17.98
2022-10-07T15:07:55.045Z,17.91
2022-10-07T15:10:26.361Z,17.85
2022-10-07T15:12:56.139Z,17.78
2022-10-07T15:15:24.244Z,17.71
2022-10-07T15:17:52.099Z,17.62
2022-10-07T15:20:21.411Z,17.54
2022-10-07T15:22:51.157Z,17.47
2022-10-07T15:25:19.501Z,17.40
2022-10-07T15:27:47.592Z,17.32
2022-10-07T15:30:15.472Z,17.23
2022-10-07T15:32:44.176Z,17.15
2022-10-07T15:35:12.605Z,17.05
2022-10-07T15:37:45.716Z,16.95
2022-10-07T15:40:14.849Z,16.82
2022-10-07T15:42:44.904Z,16.71
2022-10-07T15:45:13.204Z,16.59
2022-10-07T15:47:40.988Z,16.47
2022-10-07T15:50:10.004Z,16.35
2022-10-07T15:52:37.993Z,16.23
2022-10-07T15:55:07.759Z,16.12
2022-10-07T15:57:35.995Z,15.99
2022-10-07T16:00:05.128Z,15.86
2022-10-07T16:02:40.187Z,15.74
2022-10-07T16:05:09.958Z,15.63
2022-10-07T16:07:38.185Z,15.52
2022-10-07T16:10:10.791Z,15.41
2022-10-07T16:12:41.624Z,15.27
2022-10-07T16:15:10.440Z,15.17
2022-10-07T16:17:38.397Z,15.05
2022-10-07T16:20:11.004Z,14.94
2022-10-07T16:22:39.411Z,14.82
2022-10-07T16:25:07.802Z,14.71
2022-10-07T16:27:54.337Z,14.61
2022-10-07T16:30:40.677Z,14.52
2022-10-07T16:33:08.889Z,14.43
2022-10-07T16:35:36.815Z,14.39
2022-10-07T16:38:05.533Z,14.34
2022-10-07T16:40:33.433Z,14.30
2022-10-07T16:43:01.308Z,14.25
2022-10-07T16:45:29.179Z,14.22
2022-10-07T16:47:57.150Z,14.19
2022-10-07T16:50:25.099Z,14.14
2022-10-07T16:52:53.016Z,14.08
2022-10-07T16:55:20.853Z,13.97
2022-10-07T16:57:49.019Z,13.90
2022-10-07T17:00:17.541Z,13.84
2022-10-07T17:02:45.376Z,13.77
2022-10-07T17:05:13.157Z,13.68
2022-10-07T17:07:40.909Z,13.61
2022-10-07T17:10:09.709Z,13.53
2022-10-07T17:12:40.745Z,13.45
2022-10-07T17:15:09.511Z,13.41
2022-10-07T17:17:37.456Z,13.37
2022-10-07T17:20:05.777Z,13.31
2022-10-07T17:22:33.573Z,13.27
2022-10-07T17:25:03.961Z,13.27
2022-10-07T17:27:32.093Z,13.28
2022-10-07T17:30:00.566Z,13.29
2022-10-07T17:32:28.436Z,13.30
2022-10-07T17:34:56.391Z,13.31
2022-10-07T17:37:25.026Z,13.30
2022-10-07T17:39:52.851Z,13.28
2022-10-07T17:42:20.566Z,13.24
2022-10-07T17:44:48.327Z,13.19
2022-10-07T17:47:16.234Z,13.15
2022-10-07T17:49:44.131Z,13.10
2022-10-07T17:52:13.335Z,13.03
2022-10-07T17:54:41.376Z,12.98
2022-10-07T17:57:09.270Z,12.91
2022-10-07T17:59:38.905Z,12.86
2022-10-07T18:02:06.812Z,12.79
2022-10-07T18:04:34.808Z,12.73
2022-10-07T18:07:02.571Z,12.69
2022-10-07T18:09:30.430Z,12.65
2022-10-07T18:12:17.174Z,12.63
2022-10-07T18:15:03.721Z,12.61
2022-10-07T18:17:31.903Z,12.58
2022-10-07T18:20:01.088Z,12.58
2022-10-07T18:22:28.939Z,12.59
2022-10-07T18:24:58.566Z,12.58
2022-10-07T18:27:27.594Z,12.58
2022-10-07T18:29:56.142Z,12.59
2022-10-07T18:32:25.239Z,12.59
2022-10-07T18:34:52.988Z,12.57
2022-10-07T18:37:21.210Z,12.55
2022-10-07T18:39:49.698Z,12.54
2022-10-07T18:42:17.733Z,12.50
2022-10-07T18:44:45.590Z,12.45
2022-10-07T18:47:13.469Z,12.40
2022-10-07T18:49:41.816Z,12.35
2022-10-07T18:52:09.594Z,12.28
2022-10-07T18:54:37.444Z,12.20
2022-10-07T18:57:05.258Z,12.13
2022-10-07T18:59:33.027Z,12.05
2022-10-07T19:02:00.890Z,11.97
2022-10-07T19:04:31.019Z,11.90
2022-10-07T19:06:58.827Z,11.86
2022-10-07T19:09:27.229Z,11.82
2022-10-07T19:11:55.343Z,11.79
2022-10-07T19:14:26.160Z,11.77
2022-10-07T19:16:53.997Z,11.77
2022-10-07T19:19:23.723Z,11.77
2022-10-07T19:21:54.507Z,11.76
2022-10-07T19:24:45.867Z,11.78
2022-10-07T19:27:14.379Z,11.82
2022-10-07T19:29:42.178Z,11.84
2022-10-07T19:32:09.994Z,11.80
2022-10-07T19:34:37.834Z,11.76
2022-10-07T19:37:06.210Z,11.73
2022-10-07T19:39:34.331Z,11.69
2022-10-07T19:42:02.071Z,11.65
2022-10-07T19:44:30.512Z,11.59
2022-10-07T19:46:58.455Z,11.53
2022-10-07T19:49:26.257Z,11.47
2022-10-07T19:51:54.124Z,11.40
2022-10-07T19:54:22.088Z,11.32
2022-10-07T19:56:49.826Z,11.24
2022-10-07T19:59:18.196Z,11.19
2022-10-07T20:01:47.642Z,11.13
2022-10-07T20:04:19.047Z,11.10
2022-10-07T20:06:47.693Z,11.08
2022-10-07T20:09:17.783Z,11.07
2022-10-07T20:11:46.985Z,11.08
2022-10-07T20:14:16.258Z,11.08
2022-10-07T20:16:44.444Z,11.10
2022-10-07T20:19:15.931Z,11.12
2022-10-07T20:21:44.417Z,11.14
2022-10-07T20:24:15.314Z,11.16
2022-10-07T20:26:44.296Z,11.19
2022-10-07T20:29:15.259Z,11.19
2022-10-07T20:31:44.326Z,11.17
2022-10-07T20:34:16.017Z,11.15
2022-10-07T20:36:44.350Z,11.12
2022-10-07T20:39:35.154Z,11.07
2022-10-07T20:42:22.003Z,11.00
2022-10-07T20:44:51.231Z,10.92
2022-10-07T20:47:20.464Z,10.83
2022-10-07T20:49:50.884Z,10.76
2022-10-07T20:52:22.120Z,10.69
2022-10-07T20:54:51.300Z,10.65
2022-10-07T20:57:37.867Z,10.62
2022-10-07T21:00:16.349Z,10.59
2022-10-07T21:02:44.653Z,10.57
2022-10-07T21:05:13.748Z,10.57
2022-10-07T21:07:42.263Z,10.58
2022-10-07T21:10:10.004Z,10.57
2022-10-07T21:12:38.513Z,10.58
2022-10-07T21:15:06.946Z,10.56
2022-10-07T21:17:34.880Z,10.56
2022-10-07T21:20:02.831Z,10.54
2022-10-07T21:22:30.608Z,10.51
2022-10-07T21:24:58.696Z,10.48
2022-10-07T21:27:26.514Z,10.46
2022-10-07T21:29:54.365Z,10.43
2022-10-07T21:32:22.304Z,10.37
2022-10-07T21:34:50.616Z,10.31
2022-10-07T21:37:18.371Z,10.24
2022-10-07T21:39:46.243Z,10.17
2022-10-07T21:42:15.853Z,10.10
2022-10-07T21:44:44.408Z,10.05
2022-10-07T21:47:12.289Z,10.01
2022-10-07T21:49:41.259Z,9.99
2022-10-07T21:52:09.002Z,9.96
2022-10-07T21:54:38.494Z,9.96
2022-10-07T21:57:06.723Z,9.95
2022-10-07T21:59:35.320Z,9.93
2022-10-07T22:02:03.110Z,9.95
2022-10-07T22:04:30.976Z,9.95
2022-10-07T22:07:17.341Z,9.97
2022-10-07T22:09:45.713Z,9.98
2022-10-07T22:12:15.414Z,9.98
2022-10-07T22:14:43.133Z,9.97
2022-10-07T22:17:12.041Z,9.93
2022-10-07T22:19:40.448Z,9.89
2022-10-07T22:22:08.209Z,9.86
2022-10-07T22:24:35.936Z,9.81
2022-10-07T22:27:04.604Z,9.76
2022-10-07T22:29:32.401Z,9.70
2022-10-07T22:32:00.209Z,9.62
2022-10-07T22:34:46.658Z,9.55
2022-10-07T22:37:14.401Z,9.49
2022-10-07T22:39:42.185Z,9.44
2022-10-07T22:42:10.025Z,9.39
2022-10-07T22:44:37.767Z,9.37
2022-10-07T22:47:05.500Z,9.35
2022-10-07T22:49:33.197Z,9.37
2022-10-07T22:52:00.986Z,9.38
2022-10-07T22:54:29.972Z,9.39
2022-10-07T22:56:57.680Z,9.39
2022-10-07T22:59:25.516Z,9.39
2022-10-07T23:01:53.466Z,9.40
2022-10-07T23:04:21.576Z,9.40
2022-10-07T23:06:49.659Z,9.40
2022-10-07T23:09:17.460Z,9.40
2022-10-07T23:11:45.919Z,9.40
2022-10-07T23:14:13.911Z,9.35
2022-10-07T23:16:42.030Z,9.29
2022-10-07T23:19:09.845Z,9.24
2022-10-07T23:21:37.605Z,9.19
2022-10-07T23:24:07.996Z,9.13
2022-10-07T23:26:37.333Z,9.06
2022-10-07T23:29:07.645Z,9.00
2022-10-07T23:31:35.650Z,8.95
2022-10-07T23:34:04.938Z,8.90
2022-10-07T23:36:34.962Z,8.87
2022-10-07T23:39:03.023Z,8.85
2022-10-07T23:41:31.605Z,8.85
2022-10-07T23:44:02.302Z,8.84
2022-10-07T23:46:33.154Z,8.84
2022-10-07T23:49:01.870Z,8.86
2022-10-07T23:51:31.953Z,8.87
2022-10-07T23:54:03.203Z,8.88
2022-10-07T23:56:31.709Z,8.89
2022-10-07T23:59:00.624Z,8.89
